sensor_id;sensor_type;location;lat;lon;timestamp;pressure;altitude;pressure_sealevel;temperature;humidity
50364;BME280;36272;59.400;17.982;2023-04-28T00:03:44;100915.69;;;4.53;76.96
50364;BME280;36272;59.400;17.982;2023-04-28T00:08:46;100924.63;;;4.52;76.75
50364;BME280;36272;59.400;17.982;2023-04-28T00:13:48;100918.03;;;4.47;76.86
50364;BME280;36272;59.400;17.982;2023-04-28T00:18:49;100926.63;;;4.50;76.69
50364;BME280;36272;59.400;17.982;2023-04-28T00:23:51;100929.28;;;4.50;76.45
50364;BME280;36272;59.400;17.982;2023-04-28T00:28:53;100933.69;;;4.34;76.69
50364;BME280;36272;59.400;17.982;2023-04-28T00:33:55;100936.72;;;4.23;77.13
50364;BME280;36272;59.400;17.982;2023-04-28T00:38:57;100927.84;;;4.15;77.15
50364;BME280;36272;59.400;17.982;2023-04-28T00:43:59;100940.59;;;4.12;77.30
50364;BME280;36272;59.400;17.982;2023-04-28T00:49:02;100936.81;;;4.06;77.08
50364;BME280;36272;59.400;17.982;2023-04-28T00:54:05;100947.25;;;3.99;76.80
50364;BME280;36272;59.400;17.982;2023-04-28T00:59:07;100956.25;;;3.90;77.08
50364;BME280;36272;59.400;17.982;2023-04-28T01:04:09;100957.75;;;3.84;76.94
50364;BME280;36272;59.400;17.982;2023-04-28T01:09:11;100955.78;;;3.78;76.88
50364;BME280;36272;59.400;17.982;2023-04-28T01:14:12;100952.34;;;3.69;76.85
50364;BME280;36272;59.400;17.982;2023-04-28T01:19:19;100945.63;;;3.59;77.18
50364;BME280;36272;59.400;17.982;2023-04-28T01:24:22;100962.84;;;3.46;77.29
50364;BME280;36272;59.400;17.982;2023-04-28T01:29:24;100949.13;;;3.42;77.13
50364;BME280;36272;59.400;17.982;2023-04-28T01:34:25;100954.91;;;3.38;77.23
50364;BME280;36272;59.400;17.982;2023-04-28T01:39:27;100967.84;;;3.24;77.43
50364;BME280;36272;59.400;17.982;2023-04-28T01:44:29;100964.69;;;3.21;77.39
50364;BME280;36272;59.400;17.982;2023-04-28T01:49:30;100958.59;;;3.20;77.68
50364;BME280;36272;59.400;17.982;2023-04-28T01:54:32;100962.22;;;3.19;77.69
50364;BME280;36272;59.400;17.982;2023-04-28T01:59:34;100960.59;;;3.18;77.84
50364;BME280;36272;59.400;17.982;2023-04-28T02:04:39;100955.78;;;3.22;77.80
50364;BME280;36272;59.400;17.982;2023-04-28T02:09:41;100960.25;;;3.21;77.85
50364;BME280;36272;59.400;17.982;2023-04-28T02:14:42;100965.53;;;3.21;78.04
50364;BME280;36272;59.400;17.982;2023-04-28T02:19:44;100963.88;;;3.20;78.16
50364;BME280;36272;59.400;17.982;2023-04-28T02:24:46;100971.81;;;3.20;78.18
50364;BME280;36272;59.400;17.982;2023-04-28T02:29:48;100972.81;;;3.19;77.94
50364;BME280;36272;59.400;17.982;2023-04-28T02:34:53;100974.47;;;3.20;78.11
50364;BME280;36272;59.400;17.982;2023-04-28T02:39:55;100977.91;;;3.21;77.74
50364;BME280;36272;59.400;17.982;2023-04-28T02:44:59;100991.97;;;3.21;77.92
50364;BME280;36272;59.400;17.982;2023-04-28T02:50:01;100985.03;;;3.29;77.89
50364;BME280;36272;59.400;17.982;2023-04-28T02:55:03;100983.34;;;3.36;77.62
50364;BME280;36272;59.400;17.982;2023-04-28T03:00:05;100984.19;;;3.45;77.80
50364;BME280;36272;59.400;17.982;2023-04-28T03:05:08;100990.44;;;3.52;77.71
50364;BME280;36272;59.400;17.982;2023-04-28T03:10:09;100992.06;;;3.61;77.72
50364;BME280;36272;59.400;17.982;2023-04-28T03:15:11;100997.53;;;3.68;77.64
50364;BME280;36272;59.400;17.982;2023-04-28T03:20:13;101002.13;;;3.74;77.42
50364;BME280;36272;59.400;17.982;2023-04-28T03:25:14;101002.44;;;3.79;77.42
50364;BME280;36272;59.400;17.982;2023-04-28T03:30:16;101002.41;;;3.87;77.23
50364;BME280;36272;59.400;17.982;2023-04-28T03:35:18;101016.78;;;3.93;77.52
50364;BME280;36272;59.400;17.982;2023-04-28T03:40:19;101015.94;;;4.01;77.24
50364;BME280;36272;59.400;17.982;2023-04-28T03:45:21;101008.97;;;4.08;77.18
50364;BME280;36272;59.400;17.982;2023-04-28T03:50:23;101014.72;;;4.12;77.47
50364;BME280;36272;59.400;17.982;2023-04-28T03:55:24;101030.44;;;4.13;77.56
50364;BME280;36272;59.400;17.982;2023-04-28T04:00:27;101024.59;;;4.26;77.78
50364;BME280;36272;59.400;17.982;2023-04-28T04:05:29;101021.38;;;4.39;77.36
50364;BME280;36272;59.400;17.982;2023-04-28T04:10:30;101018.69;;;4.47;77.40
50364;BME280;36272;59.400;17.982;2023-04-28T04:15:32;101031.03;;;4.64;77.00
50364;BME280;36272;59.400;17.982;2023-04-28T04:20:34;101042.72;;;4.69;77.26
50364;BME280;36272;59.400;17.982;2023-04-28T04:25:35;101038.75;;;4.73;77.51
50364;BME280;36272;59.400;17.982;2023-04-28T04:30:37;101035.69;;;4.85;77.26
50364;BME280;36272;59.400;17.982;2023-04-28T04:35:38;101046.59;;;4.90;77.40
50364;BME280;36272;59.400;17.982;2023-04-28T04:40:40;101051.84;;;4.98;77.02
50364;BME280;36272;59.400;17.982;2023-04-28T04:45:42;101071.41;;;4.97;77.24
50364;BME280;36272;59.400;17.982;2023-04-28T04:50:43;101071.06;;;5.00;77.27
50364;BME280;36272;59.400;17.982;2023-04-28T04:55:45;101067.06;;;5.04;77.15
50364;BME280;36272;59.400;17.982;2023-04-28T05:00:47;101060.91;;;5.04;77.18
50364;BME280;36272;59.400;17.982;2023-04-28T05:05:48;101068.50;;;5.07;77.16
50364;BME280;36272;59.400;17.982;2023-04-28T05:10:50;101066.91;;;5.21;77.01
50364;BME280;36272;59.400;17.982;2023-04-28T05:15:51;101081.47;;;5.25;76.93
50364;BME280;36272;59.400;17.982;2023-04-28T05:20:53;101078.09;;;5.31;76.79
50364;BME280;36272;59.400;17.982;2023-04-28T05:25:55;101079.22;;;5.37;76.58
50364;BME280;36272;59.400;17.982;2023-04-28T05:30:58;101063.78;;;5.41;76.60
50364;BME280;36272;59.400;17.982;2023-04-28T05:36:00;101071.09;;;5.39;76.39
50364;BME280;36272;59.400;17.982;2023-04-28T05:41:01;101091.03;;;5.34;76.56
50364;BME280;36272;59.400;17.982;2023-04-28T05:46:03;101091.38;;;5.31;76.37
50364;BME280;36272;59.400;17.982;2023-04-28T05:51:05;101094.38;;;5.28;76.60
50364;BME280;36272;59.400;17.982;2023-04-28T05:56:06;101091.03;;;5.34;76.65
50364;BME280;36272;59.400;17.982;2023-04-28T06:01:08;101098.91;;;5.43;76.70
50364;BME280;36272;59.400;17.982;2023-04-28T06:06:10;101100.03;;;5.48;76.36
50364;BME280;36272;59.400;17.982;2023-04-28T06:11:12;101106.16;;;5.49;76.17
50364;BME280;36272;59.400;17.982;2023-04-28T06:16:15;101104.16;;;5.51;76.31
50364;BME280;36272;59.400;17.982;2023-04-28T06:21:17;101116.03;;;5.55;76.49
50364;BME280;36272;59.400;17.982;2023-04-28T06:26:19;101126.53;;;5.72;76.24
50364;BME280;36272;59.400;17.982;2023-04-28T06:31:21;101130.31;;;5.92;75.67
50364;BME280;36272;59.400;17.982;2023-04-28T06:36:23;101133.19;;;6.06;75.53
50364;BME280;36272;59.400;17.982;2023-04-28T06:41:24;101137.78;;;6.12;75.10
50364;BME280;36272;59.400;17.982;2023-04-28T06:46:26;101146.13;;;6.24;74.80
50364;BME280;36272;59.400;17.982;2023-04-28T06:51:28;101152.91;;;6.27;74.79
50364;BME280;36272;59.400;17.982;2023-04-28T06:56:30;101159.31;;;6.32;74.75
50364;BME280;36272;59.400;17.982;2023-04-28T07:01:32;101163.63;;;6.33;74.55
50364;BME280;36272;59.400;17.982;2023-04-28T07:06:34;101167.13;;;6.34;74.51
50364;BME280;36272;59.400;17.982;2023-04-28T07:11:36;101170.31;;;6.44;74.24
50364;BME280;36272;59.400;17.982;2023-04-28T07:16:40;101167.56;;;6.52;73.76
50364;BME280;36272;59.400;17.982;2023-04-28T07:21:47;101155.56;;;6.57;73.91
50364;BME280;36272;59.400;17.982;2023-04-28T07:26:51;101154.09;;;6.69;73.73
50364;BME280;36272;59.400;17.982;2023-04-28T07:31:56;101164.97;;;6.89;73.04
50364;BME280;36272;59.400;17.982;2023-04-28T07:37:01;101173.38;;;6.93;72.95
50364;BME280;36272;59.400;17.982;2023-04-28T07:42:03;101195.94;;;6.97;72.70
50364;BME280;36272;59.400;17.982;2023-04-28T07:47:05;101193.28;;;6.97;72.77
50364;BME280;36272;59.400;17.982;2023-04-28T07:52:06;101192.63;;;6.95;72.41
50364;BME280;36272;59.400;17.982;2023-04-28T07:57:08;101196.09;;;7.10;72.34
50364;BME280;36272;59.400;17.982;2023-04-28T08:02:11;101202.38;;;7.24;71.96
50364;BME280;36272;59.400;17.982;2023-04-28T08:07:14;101218.69;;;7.36;71.78
50364;BME280;36272;59.400;17.982;2023-04-28T08:12:16;101222.34;;;7.35;71.41
50364;BME280;36272;59.400;17.982;2023-04-28T08:17:18;101227.63;;;7.28;71.02
50364;BME280;36272;59.400;17.982;2023-04-28T08:22:20;101217.56;;;7.46;71.37
50364;BME280;36272;59.400;17.982;2023-04-28T08:27:22;101235.56;;;7.65;70.57
50364;BME280;36272;59.400;17.982;2023-04-28T08:32:25;101235.06;;;7.77;70.19
50364;BME280;36272;59.400;17.982;2023-04-28T08:37:26;101231.88;;;7.88;69.69
50364;BME280;36272;59.400;17.982;2023-04-28T08:42:31;101233.16;;;7.92;69.73
50364;BME280;36272;59.400;17.982;2023-04-28T08:47:38;101213.53;;;8.00;69.25
50364;BME280;36272;59.400;17.982;2023-04-28T08:52:41;101233.78;;;8.16;68.86
50364;BME280;36272;59.400;17.982;2023-04-28T08:57:45;101233.47;;;8.32;68.13
50364;BME280;36272;59.400;17.982;2023-04-28T09:02:48;101239.41;;;8.34;68.27
50364;BME280;36272;59.400;17.982;2023-04-28T09:07:50;101246.38;;;8.57;67.75
50364;BME280;36272;59.400;17.982;2023-04-28T09:12:53;101232.78;;;8.81;66.81
50364;BME280;36272;59.400;17.982;2023-04-28T09:17:56;101241.84;;;8.93;66.44
50364;BME280;36272;59.400;17.982;2023-04-28T09:23:17;101231.47;;;9.18;65.92
50364;BME280;36272;59.400;17.982;2023-04-28T09:28:20;101236.56;;;9.13;65.84
50364;BME280;36272;59.400;17.982;2023-04-28T09:33:22;101243.13;;;9.04;66.06
50364;BME280;36272;59.400;17.982;2023-04-28T09:38:24;101246.41;;;9.06;65.82
50364;BME280;36272;59.400;17.982;2023-04-28T09:43:30;101239.88;;;9.15;65.20
50364;BME280;36272;59.400;17.982;2023-04-28T09:48:36;101229.03;;;9.23;64.94
50364;BME280;36272;59.400;17.982;2023-04-28T09:53:38;101231.97;;;9.49;64.32
50364;BME280;36272;59.400;17.982;2023-04-28T09:58:42;101222.97;;;9.84;63.30
50364;BME280;36272;59.400;17.982;2023-04-28T10:03:46;101229.75;;;10.06;63.08
50364;BME280;36272;59.400;17.982;2023-04-28T10:08:50;101234.50;;;10.18;62.54
50364;BME280;36272;59.400;17.982;2023-04-28T10:13:52;101246.63;;;10.27;62.39
50364;BME280;36272;59.400;17.982;2023-04-28T10:18:55;101238.81;;;10.32;62.47
50364;BME280;36272;59.400;17.982;2023-04-28T10:24:23;101227.69;;;10.49;61.71
50364;BME280;36272;59.400;17.982;2023-04-28T10:29:24;101221.31;;;10.36;61.49
50364;BME280;36272;59.400;17.982;2023-04-28T10:34:26;101239.84;;;10.31;61.04
50364;BME280;36272;59.400;17.982;2023-04-28T10:39:29;101229.97;;;10.45;60.28
50364;BME280;36272;59.400;17.982;2023-04-28T10:55:29;101206.75;;;10.98;59.94
50364;BME280;36272;59.400;17.982;2023-04-28T11:00:40;101218.31;;;11.30;58.49
50364;BME280;36272;59.400;17.982;2023-04-28T11:06:20;101220.44;;;11.54;57.43
50364;BME280;36272;59.400;17.982;2023-04-28T11:11:32;101206.50;;;12.84;54.83
50364;BME280;36272;59.400;17.982;2023-04-28T11:16:51;101214.38;;;14.24;52.10
50364;BME280;36272;59.400;17.982;2023-04-28T11:21:55;101210.66;;;16.78;49.20
50364;BME280;36272;59.400;17.982;2023-04-28T11:26:58;101212.44;;;19.78;45.39
50364;BME280;36272;59.400;17.982;2023-04-28T11:32:00;101230.84;;;18.50;45.19
50364;BME280;36272;59.400;17.982;2023-04-28T11:37:02;101227.81;;;17.11;46.79
50364;BME280;36272;59.400;17.982;2023-04-28T11:42:10;101217.81;;;16.45;47.48
50364;BME280;36272;59.400;17.982;2023-04-28T11:47:11;101235.56;;;17.02;45.83
50364;BME280;36272;59.400;17.982;2023-04-28T11:52:13;101239.38;;;16.62;45.45
50364;BME280;36272;59.400;17.982;2023-04-28T11:57:19;101229.75;;;16.49;45.79
50364;BME280;36272;59.400;17.982;2023-04-28T12:02:25;101232.97;;;16.29;45.90
50364;BME280;36272;59.400;17.982;2023-04-28T12:07:40;101224.69;;;15.50;46.61
50364;BME280;36272;59.400;17.982;2023-04-28T12:12:45;101236.78;;;15.19;47.70
50364;BME280;36272;59.400;17.982;2023-04-28T12:17:47;101247.25;;;15.61;47.04
50364;BME280;36272;59.400;17.982;2023-04-28T12:22:50;101237.22;;;17.96;44.02
50364;BME280;36272;59.400;17.982;2023-04-28T12:28:07;101216.88;;;21.26;40.13
50364;BME280;36272;59.400;17.982;2023-04-28T12:33:22;101214.81;;;23.23;37.18
50364;BME280;36272;59.400;17.982;2023-04-28T12:38:25;101221.97;;;24.32;36.58
50364;BME280;36272;59.400;17.982;2023-04-28T12:43:26;101233.59;;;24.10;36.48
50364;BME280;36272;59.400;17.982;2023-04-28T12:48:29;101238.81;;;24.81;35.75
50364;BME280;36272;59.400;17.982;2023-04-28T12:53:32;101230.88;;;24.10;36.22
50364;BME280;36272;59.400;17.982;2023-04-28T12:58:33;101225.88;;;23.12;37.15
50364;BME280;36272;59.400;17.982;2023-04-28T13:03:35;101228.44;;;22.36;37.74
50364;BME280;36272;59.400;17.982;2023-04-28T13:08:37;101222.69;;;23.43;36.75
50364;BME280;36272;59.400;17.982;2023-04-28T13:13:39;101227.50;;;23.52;35.55
50364;BME280;36272;59.400;17.982;2023-04-28T13:18:41;101222.09;;;22.89;35.62
50364;BME280;36272;59.400;17.982;2023-04-28T13:23:43;101228.75;;;22.58;36.46
50364;BME280;36272;59.400;17.982;2023-04-28T13:28:46;101204.03;;;23.98;35.48
50364;BME280;36272;59.400;17.982;2023-04-28T13:33:47;101223.63;;;23.86;34.73
50364;BME280;36272;59.400;17.982;2023-04-28T13:38:49;101223.72;;;22.71;36.90
50364;BME280;36272;59.400;17.982;2023-04-28T13:43:51;101227.31;;;22.12;37.64
50364;BME280;36272;59.400;17.982;2023-04-28T13:48:53;101235.19;;;21.10;39.00
50364;BME280;36272;59.400;17.982;2023-04-28T13:53:55;101255.84;;;20.09;40.57
50364;BME280;36272;59.400;17.982;2023-04-28T13:58:57;101259.47;;;18.94;42.43
50364;BME280;36272;59.400;17.982;2023-04-28T14:03:59;101283.84;;;17.43;45.17
50364;BME280;36272;59.400;17.982;2023-04-28T14:09:01;101289.16;;;15.98;48.90
50364;BME280;36272;59.400;17.982;2023-04-28T14:14:03;101303.56;;;15.16;50.73
50364;BME280;36272;59.400;17.982;2023-04-28T14:19:14;101303.03;;;14.67;50.88
50364;BME280;36272;59.400;17.982;2023-04-28T14:24:18;101302.91;;;14.38;52.92
50364;BME280;36272;59.400;17.982;2023-04-28T14:29:20;101293.84;;;15.15;54.27
50364;BME280;36272;59.400;17.982;2023-04-28T14:34:22;101298.94;;;17.39;50.71
50364;BME280;36272;59.400;17.982;2023-04-28T14:39:27;101292.94;;;17.59;49.92
50364;BME280;36272;59.400;17.982;2023-04-28T14:44:33;101283.66;;;17.28;50.56
50364;BME280;36272;59.400;17.982;2023-04-28T14:49:34;101277.22;;;18.64;47.90
50364;BME280;36272;59.400;17.982;2023-04-28T14:54:36;101280.69;;;19.08;46.58
50364;BME280;36272;59.400;17.982;2023-04-28T14:59:38;101282.44;;;19.50;46.67
50364;BME280;36272;59.400;17.982;2023-04-28T15:04:40;101291.19;;;18.94;46.08
50364;BME280;36272;59.400;17.982;2023-04-28T15:09:41;101296.31;;;18.04;45.90
50364;BME280;36272;59.400;17.982;2023-04-28T15:14:44;101299.69;;;17.34;46.73
50364;BME280;36272;59.400;17.982;2023-04-28T15:19:46;101311.53;;;16.89;47.68
50364;BME280;36272;59.400;17.982;2023-04-28T15:24:48;101315.22;;;16.83;47.09
50364;BME280;36272;59.400;17.982;2023-04-28T15:29:49;101316.59;;;16.63;46.82
50364;BME280;36272;59.400;17.982;2023-04-28T15:34:51;101307.81;;;16.33;46.28
50364;BME280;36272;59.400;17.982;2023-04-28T15:40:03;101285.72;;;16.02;46.44
50364;BME280;36272;59.400;17.982;2023-04-28T15:45:38;101279.31;;;15.16;47.81
50364;BME280;36272;59.400;17.982;2023-04-28T15:50:40;101301.16;;;14.79;47.27
50364;BME280;36272;59.400;17.982;2023-04-28T15:55:42;101303.41;;;14.47;48.19
50364;BME280;36272;59.400;17.982;2023-04-28T16:00:44;101299.28;;;14.20;48.09
50364;BME280;36272;59.400;17.982;2023-04-28T16:05:46;101314.75;;;13.82;48.95
50364;BME280;36272;59.400;17.982;2023-04-28T16:10:48;101309.50;;;13.57;48.85
50364;BME280;36272;59.400;17.982;2023-04-28T16:15:53;101310.88;;;13.29;49.29
50364;BME280;36272;59.400;17.982;2023-04-28T16:20:55;101328.19;;;13.15;49.15
50364;BME280;36272;59.400;17.982;2023-04-28T16:25:59;101298.22;;;12.81;49.71
50364;BME280;36272;59.400;17.982;2023-04-28T16:31:01;101319.13;;;12.53;49.79
50364;BME280;36272;59.400;17.982;2023-04-28T16:36:03;101319.72;;;12.30;49.93
50364;BME280;36272;59.400;17.982;2023-04-28T16:41:04;101322.19;;;12.06;50.38
50364;BME280;36272;59.400;17.982;2023-04-28T16:46:06;101329.94;;;11.82;50.54
50364;BME280;36272;59.400;17.982;2023-04-28T16:51:09;101313.53;;;11.65;50.95
50364;BME280;36272;59.400;17.982;2023-04-28T16:56:13;101314.44;;;11.52;51.38
50364;BME280;36272;59.400;17.982;2023-04-28T17:01:20;101309.13;;;11.39;52.01
50364;BME280;36272;59.400;17.982;2023-04-28T17:06:22;101320.72;;;11.26;52.29
50364;BME280;36272;59.400;17.982;2023-04-28T17:11:24;101320.16;;;11.17;53.62
50364;BME280;36272;59.400;17.982;2023-04-28T17:16:30;101310.28;;;11.11;54.04
50364;BME280;36272;59.400;17.982;2023-04-28T17:21:32;101322.84;;;11.04;53.53
50364;BME280;36272;59.400;17.982;2023-04-28T17:26:34;101326.38;;;10.97;53.79
50364;BME280;36272;59.400;17.982;2023-04-28T17:31:36;101320.63;;;10.94;53.79
50364;BME280;36272;59.400;17.982;2023-04-28T17:36:52;101310.94;;;10.86;54.90
50364;BME280;36272;59.400;17.982;2023-04-28T17:41:56;101326.81;;;10.74;54.34
50364;BME280;36272;59.400;17.982;2023-04-28T17:47:01;101338.59;;;10.60;54.80
50364;BME280;36272;59.400;17.982;2023-04-28T17:52:03;101337.34;;;10.49;55.20
50364;BME280;36272;59.400;17.982;2023-04-28T17:57:04;101343.69;;;10.34;55.83
50364;BME280;36272;59.400;17.982;2023-04-28T18:02:09;101319.63;;;10.21;56.33
50364;BME280;36272;59.400;17.982;2023-04-28T18:07:11;101343.25;;;10.10;56.18
50364;BME280;36272;59.400;17.982;2023-04-28T18:12:13;101332.75;;;9.95;57.12
50364;BME280;36272;59.400;17.982;2023-04-28T18:17:17;101339.28;;;9.79;57.37
50364;BME280;36272;59.400;17.982;2023-04-28T18:22:19;101337.59;;;9.65;57.68
50364;BME280;36272;59.400;17.982;2023-04-28T18:27:21;101353.56;;;9.51;58.07
50364;BME280;36272;59.400;17.982;2023-04-28T18:32:22;101345.91;;;9.35;59.11
50364;BME280;36272;59.400;17.982;2023-04-28T18:37:26;101350.56;;;9.19;59.40
50364;BME280;36272;59.400;17.982;2023-04-28T18:42:28;101346.56;;;9.02;59.70
50364;BME280;36272;59.400;17.982;2023-04-28T18:47:32;101352.22;;;8.85;59.91
50364;BME280;36272;59.400;17.982;2023-04-28T18:52:33;101351.69;;;8.68;60.34
50364;BME280;36272;59.400;17.982;2023-04-28T18:57:35;101357.91;;;8.54;60.55
50364;BME280;36272;59.400;17.982;2023-04-28T19:02:37;101359.00;;;8.38;60.98
50364;BME280;36272;59.400;17.982;2023-04-28T19:07:38;101361.53;;;8.24;60.95
50364;BME280;36272;59.400;17.982;2023-04-28T19:12:40;101361.41;;;8.11;61.48
50364;BME280;36272;59.400;17.982;2023-04-28T19:17:42;101351.63;;;7.96;61.81
50364;BME280;36272;59.400;17.982;2023-04-28T19:22:44;101349.81;;;7.82;62.29
50364;BME280;36272;59.400;17.982;2023-04-28T19:27:47;101358.88;;;7.66;62.29
50364;BME280;36272;59.400;17.982;2023-04-28T19:32:49;101359.72;;;7.51;62.53
50364;BME280;36272;59.400;17.982;2023-04-28T19:37:51;101365.91;;;7.37;63.15
50364;BME280;36272;59.400;17.982;2023-04-28T19:42:53;101352.25;;;7.25;63.67
50364;BME280;36272;59.400;17.982;2023-04-28T19:47:55;101357.19;;;7.13;63.60
50364;BME280;36272;59.400;17.982;2023-04-28T19:53:06;101355.16;;;7.00;63.95
50364;BME280;36272;59.400;17.982;2023-04-28T19:58:11;101338.34;;;6.84;64.55
50364;BME280;36272;59.400;17.982;2023-04-28T20:03:14;101339.28;;;6.92;63.07
50364;BME280;36272;59.400;17.982;2023-04-28T20:08:15;101359.31;;;6.64;63.89
50364;BME280;36272;59.400;17.982;2023-04-28T20:13:17;101352.97;;;6.50;64.57
50364;BME280;36272;59.400;17.982;2023-04-28T20:23:30;101357.50;;;6.27;65.13
50364;BME280;36272;59.400;17.982;2023-04-28T20:28:31;101356.25;;;6.14;65.29
50364;BME280;36272;59.400;17.982;2023-04-28T20:33:33;101357.28;;;6.05;65.50
50364;BME280;36272;59.400;17.982;2023-04-28T20:38:35;101365.66;;;5.93;65.74
50364;BME280;36272;59.400;17.982;2023-04-28T20:43:37;101359.09;;;5.81;66.26
50364;BME280;36272;59.400;17.982;2023-04-28T20:48:39;101353.16;;;5.71;66.50
50364;BME280;36272;59.400;17.982;2023-04-28T20:53:41;101363.16;;;5.60;66.81
50364;BME280;36272;59.400;17.982;2023-04-28T20:58:43;101363.56;;;5.49;66.93
50364;BME280;36272;59.400;17.982;2023-04-28T21:03:44;101357.44;;;5.40;67.11
50364;BME280;36272;59.400;17.982;2023-04-28T21:08:46;101361.28;;;5.29;67.36
50364;BME280;36272;59.400;17.982;2023-04-28T21:13:48;101350.56;;;5.23;67.48
50364;BME280;36272;59.400;17.982;2023-04-28T21:18:50;101347.06;;;5.14;67.66
50364;BME280;36272;59.400;17.982;2023-04-28T21:23:52;101357.56;;;5.07;67.92
50364;BME280;36272;59.400;17.982;2023-04-28T21:28:53;101354.09;;;4.98;68.12
50364;BME280;36272;59.400;17.982;2023-04-28T21:33:56;101356.59;;;4.91;68.40
50364;BME280;36272;59.400;17.982;2023-04-28T21:38:58;101356.78;;;4.82;68.42
50364;BME280;36272;59.400;17.982;2023-04-28T21:44:00;101339.72;;;4.76;68.42
50364;BME280;36272;59.400;17.982;2023-04-28T21:49:02;101341.22;;;4.70;68.31
50364;BME280;36272;59.400;17.982;2023-04-28T21:54:04;101336.94;;;4.61;68.67
50364;BME280;36272;59.400;17.982;2023-04-28T21:59:08;101349.53;;;4.51;68.69
50364;BME280;36272;59.400;17.982;2023-04-28T22:04:10;101342.56;;;4.41;69.17
50364;BME280;36272;59.400;17.982;2023-04-28T22:09:14;101344.88;;;4.36;69.38
50364;BME280;36272;59.400;17.982;2023-04-28T22:14:16;101337.59;;;4.30;69.35
50364;BME280;36272;59.400;17.982;2023-04-28T22:24:36;101334.78;;;4.23;69.48
50364;BME280;36272;59.400;17.982;2023-04-28T22:29:37;101333.78;;;4.16;69.67
50364;BME280;36272;59.400;17.982;2023-04-28T22:34:39;101343.88;;;4.04;69.72
50364;BME280;36272;59.400;17.982;2023-04-28T22:39:46;101333.25;;;3.96;70.46
50364;BME280;36272;59.400;17.982;2023-04-28T22:44:50;101326.63;;;3.92;70.22
50364;BME280;36272;59.400;17.982;2023-04-28T22:49:51;101330.28;;;3.91;69.97
50364;BME280;36272;59.400;17.982;2023-04-28T22:54:53;101328.13;;;3.86;69.84
50364;BME280;36272;59.400;17.982;2023-04-28T22:59:57;101322.97;;;3.76;69.95
50364;BME280;36272;59.400;17.982;2023-04-28T23:04:59;101335.34;;;3.67;70.30
50364;BME280;36272;59.400;17.982;2023-04-28T23:10:02;101316.00;;;3.59;70.65
50364;BME280;36272;59.400;17.982;2023-04-28T23:15:05;101320.44;;;3.58;70.48
50364;BME280;36272;59.400;17.982;2023-04-28T23:20:10;101313.81;;;3.54;70.37
50364;BME280;36272;59.400;17.982;2023-04-28T23:25:12;101316.94;;;3.49;70.35
50364;BME280;36272;59.400;17.982;2023-04-28T23:30:14;101308.00;;;3.42;70.62
50364;BME280;36272;59.400;17.982;2023-04-28T23:35:15;101305.66;;;3.39;70.49
50364;BME280;36272;59.400;17.982;2023-04-28T23:40:20;101291.28;;;3.33;70.59
50364;BME280;36272;59.400;17.982;2023-04-28T23:45:21;101288.44;;;3.26;70.47
50364;BME280;36272;59.400;17.982;2023-04-28T23:50:23;101284.47;;;3.22;70.65
50364;BME280;36272;59.400;17.982;2023-04-28T23:55:27;101277.31;;;3.15;70.72
